sensor_id;sensor_type;location;lat;lon;timestamp;P1;durP1;ratioP1;P2;durP2;ratioP2
14001;SDS011;7076;51.280;12.584;2023-02-23T00:03:38;9.95;;;7.10;;
14001;SDS011;7076;51.280;12.584;2023-02-23T00:08:41;10.63;;;8.00;;
14001;SDS011;7076;51.280;12.584;2023-02-23T00:13:46;12.43;;;7.90;;
14001;SDS011;7076;51.280;12.584;2023-02-23T00:18:51;10.80;;;8.02;;
14001;SDS011;7076;51.280;12.584;2023-02-23T00:23:55;10.93;;;7.85;;
14001;SDS011;7076;51.280;12.584;2023-02-23T00:29:01;11.75;;;8.07;;
14001;SDS011;7076;51.280;12.584;2023-02-23T00:34:06;11.82;;;8.38;;
14001;SDS011;7076;51.280;12.584;2023-02-23T00:39:10;12.20;;;8.50;;
14001;SDS011;7076;51.280;12.584;2023-02-23T00:44:21;11.88;;;7.25;;
14001;SDS011;7076;51.280;12.584;2023-02-23T00:49:25;13.43;;;9.52;;
14001;SDS011;7076;51.280;12.584;2023-02-23T00:54:28;13.68;;;8.88;;
14001;SDS011;7076;51.280;12.584;2023-02-23T00:59:32;13.38;;;10.23;;
14001;SDS011;7076;51.280;12.584;2023-02-23T01:04:35;16.33;;;11.75;;
14001;SDS011;7076;51.280;12.584;2023-02-23T01:09:37;16.73;;;11.50;;
14001;SDS011;7076;51.280;12.584;2023-02-23T01:14:41;15.02;;;10.45;;
14001;SDS011;7076;51.280;12.584;2023-02-23T01:19:44;18.90;;;11.23;;
14001;SDS011;7076;51.280;12.584;2023-02-23T01:24:47;17.05;;;10.75;;
14001;SDS011;7076;51.280;12.584;2023-02-23T01:29:51;16.42;;;11.02;;
14001;SDS011;7076;51.280;12.584;2023-02-23T01:34:55;16.45;;;11.40;;
14001;SDS011;7076;51.280;12.584;2023-02-23T01:39:58;16.38;;;10.88;;
14001;SDS011;7076;51.280;12.584;2023-02-23T01:50:32;15.65;;;10.50;;
14001;SDS011;7076;51.280;12.584;2023-02-23T01:55:40;17.30;;;10.90;;
14001;SDS011;7076;51.280;12.584;2023-02-23T02:00:45;18.25;;;11.45;;
14001;SDS011;7076;51.280;12.584;2023-02-23T02:05:50;16.98;;;10.38;;
14001;SDS011;7076;51.280;12.584;2023-02-23T02:10:57;15.27;;;10.23;;
14001;SDS011;7076;51.280;12.584;2023-02-23T02:21:42;17.95;;;10.45;;
14001;SDS011;7076;51.280;12.584;2023-02-23T02:26:57;14.95;;;9.73;;
14001;SDS011;7076;51.280;12.584;2023-02-23T02:32:23;15.45;;;10.52;;
14001;SDS011;7076;51.280;12.584;2023-02-23T02:37:45;19.38;;;11.15;;
14001;SDS011;7076;51.280;12.584;2023-02-23T02:43:00;16.30;;;10.45;;
14001;SDS011;7076;51.280;12.584;2023-02-23T02:48:13;14.30;;;9.88;;
14001;SDS011;7076;51.280;12.584;2023-02-23T02:53:24;14.35;;;9.50;;
14001;SDS011;7076;51.280;12.584;2023-02-23T02:58:29;14.55;;;9.95;;
14001;SDS011;7076;51.280;12.584;2023-02-23T03:03:35;14.65;;;9.43;;
14001;SDS011;7076;51.280;12.584;2023-02-23T03:09:00;13.27;;;9.43;;
14001;SDS011;7076;51.280;12.584;2023-02-23T03:14:26;14.45;;;10.13;;
14001;SDS011;7076;51.280;12.584;2023-02-23T03:19:52;15.98;;;9.98;;
14001;SDS011;7076;51.280;12.584;2023-02-23T03:25:17;14.27;;;9.82;;
14001;SDS011;7076;51.280;12.584;2023-02-23T03:30:44;16.25;;;9.55;;
14001;SDS011;7076;51.280;12.584;2023-02-23T03:36:08;15.98;;;9.93;;
14001;SDS011;7076;51.280;12.584;2023-02-23T03:41:33;16.15;;;10.15;;
14001;SDS011;7076;51.280;12.584;2023-02-23T03:46:56;15.65;;;10.40;;
14001;SDS011;7076;51.280;12.584;2023-02-23T03:52:18;13.32;;;8.85;;
14001;SDS011;7076;51.280;12.584;2023-02-23T03:57:41;13.95;;;9.98;;
14001;SDS011;7076;51.280;12.584;2023-02-23T04:03:02;15.18;;;9.63;;
14001;SDS011;7076;51.280;12.584;2023-02-23T04:08:26;14.00;;;9.13;;
14001;SDS011;7076;51.280;12.584;2023-02-23T04:13:50;15.23;;;9.55;;
14001;SDS011;7076;51.280;12.584;2023-02-23T04:18:55;14.52;;;10.02;;
14001;SDS011;7076;51.280;12.584;2023-02-23T04:23:58;15.52;;;9.50;;
14001;SDS011;7076;51.280;12.584;2023-02-23T04:29:02;16.00;;;10.05;;
14001;SDS011;7076;51.280;12.584;2023-02-23T04:34:05;14.35;;;9.18;;
14001;SDS011;7076;51.280;12.584;2023-02-23T04:39:08;12.80;;;8.88;;
14001;SDS011;7076;51.280;12.584;2023-02-23T04:44:12;13.68;;;9.23;;
14001;SDS011;7076;51.280;12.584;2023-02-23T04:49:15;14.60;;;9.70;;
14001;SDS011;7076;51.280;12.584;2023-02-23T04:54:17;13.68;;;9.30;;
14001;SDS011;7076;51.280;12.584;2023-02-23T04:59:21;14.73;;;9.65;;
14001;SDS011;7076;51.280;12.584;2023-02-23T05:04:24;13.10;;;9.30;;
14001;SDS011;7076;51.280;12.584;2023-02-23T05:09:27;15.15;;;9.25;;
14001;SDS011;7076;51.280;12.584;2023-02-23T05:14:32;12.63;;;8.30;;
14001;SDS011;7076;51.280;12.584;2023-02-23T05:19:34;11.07;;;8.25;;
14001;SDS011;7076;51.280;12.584;2023-02-23T05:24:37;10.77;;;7.93;;
14001;SDS011;7076;51.280;12.584;2023-02-23T05:29:42;11.85;;;8.90;;
14001;SDS011;7076;51.280;12.584;2023-02-23T05:34:44;13.68;;;8.77;;
14001;SDS011;7076;51.280;12.584;2023-02-23T05:39:47;14.77;;;8.90;;
14001;SDS011;7076;51.280;12.584;2023-02-23T05:44:51;13.63;;;9.45;;
14001;SDS011;7076;51.280;12.584;2023-02-23T05:49:54;13.60;;;9.15;;
14001;SDS011;7076;51.280;12.584;2023-02-23T05:54:57;13.38;;;8.70;;
14001;SDS011;7076;51.280;12.584;2023-02-23T06:00:02;13.50;;;9.05;;
14001;SDS011;7076;51.280;12.584;2023-02-23T06:05:06;11.63;;;8.48;;
14001;SDS011;7076;51.280;12.584;2023-02-23T06:10:10;14.05;;;8.63;;
14001;SDS011;7076;51.280;12.584;2023-02-23T06:15:15;12.40;;;8.40;;
14001;SDS011;7076;51.280;12.584;2023-02-23T06:20:18;11.50;;;8.60;;
14001;SDS011;7076;51.280;12.584;2023-02-23T06:25:21;12.20;;;8.75;;
14001;SDS011;7076;51.280;12.584;2023-02-23T06:30:25;10.90;;;7.93;;
14001;SDS011;7076;51.280;12.584;2023-02-23T06:35:28;14.63;;;9.07;;
14001;SDS011;7076;51.280;12.584;2023-02-23T06:40:31;11.95;;;8.20;;
14001;SDS011;7076;51.280;12.584;2023-02-23T06:45:35;11.32;;;8.13;;
14001;SDS011;7076;51.280;12.584;2023-02-23T06:50:38;9.93;;;7.28;;
14001;SDS011;7076;51.280;12.584;2023-02-23T06:55:40;11.73;;;7.35;;
14001;SDS011;7076;51.280;12.584;2023-02-23T07:00:45;10.93;;;8.23;;
14001;SDS011;7076;51.280;12.584;2023-02-23T07:05:47;11.85;;;8.07;;
14001;SDS011;7076;51.280;12.584;2023-02-23T07:10:51;12.18;;;8.93;;
14001;SDS011;7076;51.280;12.584;2023-02-23T07:15:56;14.30;;;8.15;;
14001;SDS011;7076;51.280;12.584;2023-02-23T07:20:59;10.07;;;7.78;;
14001;SDS011;7076;51.280;12.584;2023-02-23T07:26:02;12.55;;;8.02;;
14001;SDS011;7076;51.280;12.584;2023-02-23T07:31:06;14.60;;;10.32;;
14001;SDS011;7076;51.280;12.584;2023-02-23T07:36:09;10.52;;;7.43;;
14001;SDS011;7076;51.280;12.584;2023-02-23T07:41:12;10.45;;;7.47;;
14001;SDS011;7076;51.280;12.584;2023-02-23T07:46:16;10.02;;;7.47;;
14001;SDS011;7076;51.280;12.584;2023-02-23T07:51:19;10.50;;;7.88;;
14001;SDS011;7076;51.280;12.584;2023-02-23T07:56:22;12.07;;;8.90;;
14001;SDS011;7076;51.280;12.584;2023-02-23T08:01:26;11.20;;;7.75;;
14001;SDS011;7076;51.280;12.584;2023-02-23T08:06:29;10.18;;;7.78;;
14001;SDS011;7076;51.280;12.584;2023-02-23T08:11:32;11.27;;;7.72;;
14001;SDS011;7076;51.280;12.584;2023-02-23T08:16:36;12.10;;;8.48;;
14001;SDS011;7076;51.280;12.584;2023-02-23T08:21:38;11.65;;;7.60;;
14001;SDS011;7076;51.280;12.584;2023-02-23T08:26:43;17.27;;;12.73;;
14001;SDS011;7076;51.280;12.584;2023-02-23T08:31:47;13.55;;;8.57;;
14001;SDS011;7076;51.280;12.584;2023-02-23T08:36:51;10.32;;;7.82;;
14001;SDS011;7076;51.280;12.584;2023-02-23T08:41:54;10.80;;;8.18;;
14001;SDS011;7076;51.280;12.584;2023-02-23T08:46:59;10.32;;;8.27;;
14001;SDS011;7076;51.280;12.584;2023-02-23T08:52:04;14.13;;;7.70;;
14001;SDS011;7076;51.280;12.584;2023-02-23T08:57:07;15.27;;;11.38;;
14001;SDS011;7076;51.280;12.584;2023-02-23T09:02:14;11.80;;;8.32;;
14001;SDS011;7076;51.280;12.584;2023-02-23T09:07:17;13.73;;;8.60;;
14001;SDS011;7076;51.280;12.584;2023-02-23T09:12:20;11.93;;;8.63;;
14001;SDS011;7076;51.280;12.584;2023-02-23T09:17:24;14.98;;;10.10;;
14001;SDS011;7076;51.280;12.584;2023-02-23T09:22:26;14.25;;;9.68;;
14001;SDS011;7076;51.280;12.584;2023-02-23T09:27:29;16.40;;;10.88;;
14001;SDS011;7076;51.280;12.584;2023-02-23T09:32:33;20.30;;;10.60;;
14001;SDS011;7076;51.280;12.584;2023-02-23T09:37:37;15.23;;;10.52;;
14001;SDS011;7076;51.280;12.584;2023-02-23T09:42:40;15.00;;;9.25;;
14001;SDS011;7076;51.280;12.584;2023-02-23T09:47:54;15.85;;;10.00;;
14001;SDS011;7076;51.280;12.584;2023-02-23T09:53:03;14.60;;;10.15;;
14001;SDS011;7076;51.280;12.584;2023-02-23T09:58:14;10.65;;;8.98;;
14001;SDS011;7076;51.280;12.584;2023-02-23T10:03:24;13.00;;;9.68;;
14001;SDS011;7076;51.280;12.584;2023-02-23T10:13:53;15.20;;;10.43;;
14001;SDS011;7076;51.280;12.584;2023-02-23T10:19:05;16.60;;;10.50;;
14001;SDS011;7076;51.280;12.584;2023-02-23T10:24:16;14.77;;;10.77;;
14001;SDS011;7076;51.280;12.584;2023-02-23T10:29:22;18.48;;;12.88;;
14001;SDS011;7076;51.280;12.584;2023-02-23T10:34:29;15.63;;;10.85;;
14001;SDS011;7076;51.280;12.584;2023-02-23T10:39:32;18.13;;;13.07;;
14001;SDS011;7076;51.280;12.584;2023-02-23T10:44:35;20.40;;;12.50;;
14001;SDS011;7076;51.280;12.584;2023-02-23T10:49:40;18.60;;;12.02;;
14001;SDS011;7076;51.280;12.584;2023-02-23T10:54:46;16.83;;;11.93;;
14001;SDS011;7076;51.280;12.584;2023-02-23T10:59:58;18.55;;;13.48;;
14001;SDS011;7076;51.280;12.584;2023-02-23T11:05:27;18.77;;;12.85;;
14001;SDS011;7076;51.280;12.584;2023-02-23T11:10:35;20.95;;;14.25;;
14001;SDS011;7076;51.280;12.584;2023-02-23T11:15:38;21.48;;;14.30;;
14001;SDS011;7076;51.280;12.584;2023-02-23T11:20:56;22.60;;;15.40;;
14001;SDS011;7076;51.280;12.584;2023-02-23T11:25:59;20.77;;;15.18;;
14001;SDS011;7076;51.280;12.584;2023-02-23T11:31:03;23.05;;;15.73;;
14001;SDS011;7076;51.280;12.584;2023-02-23T11:36:17;22.92;;;16.00;;
14001;SDS011;7076;51.280;12.584;2023-02-23T11:41:27;23.33;;;15.75;;
14001;SDS011;7076;51.280;12.584;2023-02-23T11:46:34;22.98;;;16.60;;
14001;SDS011;7076;51.280;12.584;2023-02-23T11:51:39;23.13;;;15.35;;
14001;SDS011;7076;51.280;12.584;2023-02-23T11:56:46;21.13;;;15.73;;
14001;SDS011;7076;51.280;12.584;2023-02-23T12:01:51;26.67;;;17.52;;
14001;SDS011;7076;51.280;12.584;2023-02-23T12:06:58;25.42;;;17.58;;
14001;SDS011;7076;51.280;12.584;2023-02-23T12:12:22;24.38;;;17.40;;
14001;SDS011;7076;51.280;12.584;2023-02-23T12:17:26;25.10;;;17.20;;
14001;SDS011;7076;51.280;12.584;2023-02-23T12:22:31;24.05;;;16.88;;
14001;SDS011;7076;51.280;12.584;2023-02-23T12:27:37;24.77;;;16.67;;
14001;SDS011;7076;51.280;12.584;2023-02-23T12:32:44;24.63;;;17.20;;
14001;SDS011;7076;51.280;12.584;2023-02-23T12:37:50;21.63;;;15.80;;
14001;SDS011;7076;51.280;12.584;2023-02-23T12:42:58;25.50;;;18.02;;
14001;SDS011;7076;51.280;12.584;2023-02-23T12:48:05;28.48;;;18.48;;
14001;SDS011;7076;51.280;12.584;2023-02-23T12:53:17;25.33;;;17.98;;
14001;SDS011;7076;51.280;12.584;2023-02-23T12:58:23;31.60;;;19.25;;
14001;SDS011;7076;51.280;12.584;2023-02-23T13:09:20;28.95;;;18.70;;
14001;SDS011;7076;51.280;12.584;2023-02-23T13:14:33;29.15;;;19.17;;
14001;SDS011;7076;51.280;12.584;2023-02-23T13:19:45;31.45;;;20.27;;
14001;SDS011;7076;51.280;12.584;2023-02-23T13:24:52;27.98;;;18.85;;
14001;SDS011;7076;51.280;12.584;2023-02-23T13:29:55;28.27;;;18.30;;
14001;SDS011;7076;51.280;12.584;2023-02-23T13:35:00;30.67;;;20.48;;
14001;SDS011;7076;51.280;12.584;2023-02-23T13:40:14;32.47;;;20.77;;
14001;SDS011;7076;51.280;12.584;2023-02-23T13:45:24;33.28;;;21.02;;
14001;SDS011;7076;51.280;12.584;2023-02-23T13:50:39;30.95;;;20.00;;
14001;SDS011;7076;51.280;12.584;2023-02-23T13:55:48;33.10;;;20.00;;
14001;SDS011;7076;51.280;12.584;2023-02-23T14:00:52;32.22;;;20.88;;
14001;SDS011;7076;51.280;12.584;2023-02-23T14:05:58;33.38;;;21.02;;
14001;SDS011;7076;51.280;12.584;2023-02-23T14:11:03;35.45;;;21.38;;
14001;SDS011;7076;51.280;12.584;2023-02-23T14:16:11;36.45;;;21.90;;
14001;SDS011;7076;51.280;12.584;2023-02-23T14:21:18;37.03;;;21.30;;
14001;SDS011;7076;51.280;12.584;2023-02-23T14:26:36;34.90;;;22.83;;
14001;SDS011;7076;51.280;12.584;2023-02-23T14:31:52;35.47;;;22.05;;
14001;SDS011;7076;51.280;12.584;2023-02-23T14:36:56;30.42;;;21.73;;
14001;SDS011;7076;51.280;12.584;2023-02-23T14:42:08;36.70;;;24.42;;
14001;SDS011;7076;51.280;12.584;2023-02-23T14:47:11;36.35;;;22.83;;
14001;SDS011;7076;51.280;12.584;2023-02-23T14:52:16;31.98;;;20.90;;
14001;SDS011;7076;51.280;12.584;2023-02-23T14:57:24;34.05;;;23.25;;
14001;SDS011;7076;51.280;12.584;2023-02-23T15:02:27;33.83;;;21.95;;
14001;SDS011;7076;51.280;12.584;2023-02-23T15:07:33;33.17;;;21.98;;
14001;SDS011;7076;51.280;12.584;2023-02-23T15:12:39;33.53;;;21.60;;
14001;SDS011;7076;51.280;12.584;2023-02-23T15:17:43;32.10;;;22.10;;
14001;SDS011;7076;51.280;12.584;2023-02-23T15:22:50;38.28;;;23.02;;
14001;SDS011;7076;51.280;12.584;2023-02-23T15:27:56;37.78;;;23.67;;
14001;SDS011;7076;51.280;12.584;2023-02-23T15:33:00;39.70;;;24.40;;
14001;SDS011;7076;51.280;12.584;2023-02-23T15:38:05;39.70;;;23.73;;
14001;SDS011;7076;51.280;12.584;2023-02-23T15:43:20;37.75;;;23.52;;
14001;SDS011;7076;51.280;12.584;2023-02-23T15:48:23;39.70;;;24.58;;
14001;SDS011;7076;51.280;12.584;2023-02-23T15:53:29;39.15;;;23.08;;
14001;SDS011;7076;51.280;12.584;2023-02-23T15:58:40;38.95;;;24.63;;
14001;SDS011;7076;51.280;12.584;2023-02-23T16:03:59;39.85;;;24.48;;
14001;SDS011;7076;51.280;12.584;2023-02-23T16:09:10;38.78;;;23.40;;
14001;SDS011;7076;51.280;12.584;2023-02-23T16:14:23;42.10;;;24.55;;
14001;SDS011;7076;51.280;12.584;2023-02-23T16:19:28;43.15;;;24.88;;
14001;SDS011;7076;51.280;12.584;2023-02-23T16:24:32;40.22;;;24.33;;
14001;SDS011;7076;51.280;12.584;2023-02-23T16:29:38;42.85;;;25.50;;
14001;SDS011;7076;51.280;12.584;2023-02-23T16:34:44;41.13;;;25.00;;
14001;SDS011;7076;51.280;12.584;2023-02-23T16:39:51;41.92;;;25.50;;
14001;SDS011;7076;51.280;12.584;2023-02-23T16:44:56;39.92;;;24.08;;
14001;SDS011;7076;51.280;12.584;2023-02-23T16:49:59;41.17;;;24.95;;
14001;SDS011;7076;51.280;12.584;2023-02-23T16:55:18;38.45;;;25.38;;
14001;SDS011;7076;51.280;12.584;2023-02-23T17:00:28;39.50;;;25.00;;
14001;SDS011;7076;51.280;12.584;2023-02-23T17:05:32;48.08;;;25.35;;
14001;SDS011;7076;51.280;12.584;2023-02-23T17:10:35;43.38;;;25.42;;
14001;SDS011;7076;51.280;12.584;2023-02-23T17:15:40;42.83;;;24.88;;
14001;SDS011;7076;51.280;12.584;2023-02-23T17:20:48;42.72;;;26.00;;
14001;SDS011;7076;51.280;12.584;2023-02-23T17:25:51;38.83;;;24.48;;
14001;SDS011;7076;51.280;12.584;2023-02-23T17:30:56;39.25;;;24.52;;
14001;SDS011;7076;51.280;12.584;2023-02-23T17:35:59;42.38;;;24.30;;
14001;SDS011;7076;51.280;12.584;2023-02-23T17:41:02;41.22;;;24.75;;
14001;SDS011;7076;51.280;12.584;2023-02-23T17:46:08;45.55;;;26.20;;
14001;SDS011;7076;51.280;12.584;2023-02-23T17:51:12;43.63;;;27.50;;
14001;SDS011;7076;51.280;12.584;2023-02-23T17:56:16;46.30;;;27.38;;
14001;SDS011;7076;51.280;12.584;2023-02-23T18:01:21;47.75;;;26.73;;
14001;SDS011;7076;51.280;12.584;2023-02-23T18:06:25;46.83;;;26.92;;
14001;SDS011;7076;51.280;12.584;2023-02-23T18:11:28;50.72;;;28.98;;
14001;SDS011;7076;51.280;12.584;2023-02-23T18:16:32;47.75;;;27.58;;
14001;SDS011;7076;51.280;12.584;2023-02-23T18:21:35;45.95;;;26.05;;
14001;SDS011;7076;51.280;12.584;2023-02-23T18:26:41;44.88;;;27.02;;
14001;SDS011;7076;51.280;12.584;2023-02-23T18:31:45;43.22;;;26.40;;
14001;SDS011;7076;51.280;12.584;2023-02-23T18:36:50;45.53;;;27.50;;
14001;SDS011;7076;51.280;12.584;2023-02-23T18:41:53;46.60;;;27.83;;
14001;SDS011;7076;51.280;12.584;2023-02-23T18:46:57;48.72;;;29.33;;
14001;SDS011;7076;51.280;12.584;2023-02-23T18:52:00;44.17;;;27.05;;
14001;SDS011;7076;51.280;12.584;2023-02-23T18:57:03;46.33;;;28.52;;
14001;SDS011;7076;51.280;12.584;2023-02-23T19:02:09;50.72;;;30.98;;
14001;SDS011;7076;51.280;12.584;2023-02-23T19:07:12;47.53;;;30.27;;
14001;SDS011;7076;51.280;12.584;2023-02-23T19:12:15;47.80;;;28.73;;
14001;SDS011;7076;51.280;12.584;2023-02-23T19:17:19;55.20;;;30.60;;
14001;SDS011;7076;51.280;12.584;2023-02-23T19:22:22;54.15;;;28.70;;
14001;SDS011;7076;51.280;12.584;2023-02-23T19:27:25;45.97;;;28.50;;
14001;SDS011;7076;51.280;12.584;2023-02-23T19:32:29;40.45;;;25.77;;
14001;SDS011;7076;51.280;12.584;2023-02-23T19:37:32;31.00;;;19.25;;
14001;SDS011;7076;51.280;12.584;2023-02-23T19:42:35;35.10;;;20.90;;
14001;SDS011;7076;51.280;12.584;2023-02-23T19:47:44;34.40;;;22.48;;
14001;SDS011;7076;51.280;12.584;2023-02-23T19:52:47;29.70;;;19.05;;
14001;SDS011;7076;51.280;12.584;2023-02-23T19:57:51;25.60;;;18.02;;
14001;SDS011;7076;51.280;12.584;2023-02-23T20:02:55;25.65;;;17.58;;
14001;SDS011;7076;51.280;12.584;2023-02-23T20:08:01;29.13;;;19.15;;
14001;SDS011;7076;51.280;12.584;2023-02-23T20:13:04;30.65;;;19.75;;
14001;SDS011;7076;51.280;12.584;2023-02-23T20:18:09;27.27;;;17.92;;
14001;SDS011;7076;51.280;12.584;2023-02-23T20:23:13;24.90;;;17.40;;
14001;SDS011;7076;51.280;12.584;2023-02-23T20:28:16;24.17;;;17.00;;
14001;SDS011;7076;51.280;12.584;2023-02-23T20:33:20;23.13;;;16.20;;
14001;SDS011;7076;51.280;12.584;2023-02-23T20:38:23;22.95;;;15.77;;
14001;SDS011;7076;51.280;12.584;2023-02-23T20:43:26;22.52;;;15.10;;
14001;SDS011;7076;51.280;12.584;2023-02-23T20:48:31;20.05;;;14.70;;
14001;SDS011;7076;51.280;12.584;2023-02-23T20:53:35;19.27;;;13.70;;
14001;SDS011;7076;51.280;12.584;2023-02-23T20:58:38;18.38;;;13.68;;
14001;SDS011;7076;51.280;12.584;2023-02-23T21:03:42;20.75;;;14.77;;
14001;SDS011;7076;51.280;12.584;2023-02-23T21:08:45;19.45;;;14.13;;
14001;SDS011;7076;51.280;12.584;2023-02-23T21:13:49;17.65;;;13.20;;
14001;SDS011;7076;51.280;12.584;2023-02-23T21:18:53;18.38;;;12.68;;
14001;SDS011;7076;51.280;12.584;2023-02-23T21:24:04;17.25;;;13.23;;
14001;SDS011;7076;51.280;12.584;2023-02-23T21:29:07;18.15;;;14.02;;
14001;SDS011;7076;51.280;12.584;2023-02-23T21:34:13;20.00;;;13.93;;
14001;SDS011;7076;51.280;12.584;2023-02-23T21:39:19;18.67;;;14.57;;
14001;SDS011;7076;51.280;12.584;2023-02-23T21:44:23;19.60;;;14.75;;
14001;SDS011;7076;51.280;12.584;2023-02-23T21:49:27;21.13;;;15.77;;
14001;SDS011;7076;51.280;12.584;2023-02-23T21:54:30;22.48;;;16.40;;
14001;SDS011;7076;51.280;12.584;2023-02-23T21:59:37;21.73;;;15.07;;
14001;SDS011;7076;51.280;12.584;2023-02-23T22:04:43;19.10;;;13.93;;
14001;SDS011;7076;51.280;12.584;2023-02-23T22:09:47;21.58;;;13.55;;
14001;SDS011;7076;51.280;12.584;2023-02-23T22:14:50;15.95;;;12.27;;
14001;SDS011;7076;51.280;12.584;2023-02-23T22:19:54;16.10;;;10.02;;
14001;SDS011;7076;51.280;12.584;2023-02-23T22:24:57;13.50;;;10.45;;
14001;SDS011;7076;51.280;12.584;2023-02-23T22:29:59;14.52;;;10.80;;
14001;SDS011;7076;51.280;12.584;2023-02-23T22:35:06;14.13;;;10.90;;
14001;SDS011;7076;51.280;12.584;2023-02-23T22:40:10;16.77;;;11.50;;
14001;SDS011;7076;51.280;12.584;2023-02-23T22:45:16;16.75;;;13.18;;
14001;SDS011;7076;51.280;12.584;2023-02-23T22:50:21;17.30;;;13.35;;
14001;SDS011;7076;51.280;12.584;2023-02-23T22:55:23;22.05;;;15.82;;
14001;SDS011;7076;51.280;12.584;2023-02-23T23:00:28;20.92;;;14.25;;
14001;SDS011;7076;51.280;12.584;2023-02-23T23:05:32;18.48;;;13.38;;
14001;SDS011;7076;51.280;12.584;2023-02-23T23:10:36;19.75;;;13.48;;
14001;SDS011;7076;51.280;12.584;2023-02-23T23:15:40;18.90;;;12.77;;
14001;SDS011;7076;51.280;12.584;2023-02-23T23:20:44;18.17;;;11.90;;
14001;SDS011;7076;51.280;12.584;2023-02-23T23:25:49;14.35;;;10.85;;
14001;SDS011;7076;51.280;12.584;2023-02-23T23:30:52;16.70;;;11.27;;
14001;SDS011;7076;51.280;12.584;2023-02-23T23:35:58;16.02;;;10.18;;
14001;SDS011;7076;51.280;12.584;2023-02-23T23:41:02;15.18;;;10.10;;
14001;SDS011;7076;51.280;12.584;2023-02-23T23:46:11;16.85;;;11.13;;
14001;SDS011;7076;51.280;12.584;2023-02-23T23:51:16;14.82;;;10.40;;
14001;SDS011;7076;51.280;12.584;2023-02-23T23:56:19;17.48;;;11.10;;
